createdAt,value
2017-10-20T00:02:23.570Z,48.92
2017-10-20T00:04:52.130Z,50.22
2017-10-20T00:07:20.511Z,47.05
2017-10-20T00:09:49.124Z,47.33
2017-10-20T00:12:17.561Z,45.25
2017-10-20T00:14:46.711Z,45.45
2017-10-20T00:17:15.119Z,43.53
2017-10-20T00:19:43.510Z,43.40
2017-10-20T00:22:12.863Z,41.08
2017-10-20T00:24:41.245Z,42.78
2017-10-20T00:27:09.643Z,39.53
2017-10-20T00:29:38.035Z,43.45
2017-10-20T00:32:06.419Z,45.22
2017-10-20T00:34:35.903Z,43.40
2017-10-20T00:37:04.312Z,43.25
2017-10-20T00:39:33.455Z,39.10
2017-10-20T00:42:01.854Z,39.75
2017-10-20T00:44:30.280Z,41.67
2017-10-20T00:46:58.646Z,41.90
2017-10-20T00:49:27.814Z,41.70
2017-10-20T00:51:56.234Z,42.42
2017-10-20T00:54:24.628Z,42.85
2017-10-20T00:56:53.031Z,40.67
2017-10-20T00:59:21.443Z,44.08
2017-10-20T01:01:51.772Z,43.25
2017-10-20T01:04:20.181Z,39.67
2017-10-20T01:06:48.556Z,41.03
2017-10-20T01:09:16.961Z,42.40
2017-10-20T01:11:45.346Z,39.70
2017-10-20T01:14:13.929Z,41.10
2017-10-20T01:16:42.824Z,45.28
2017-10-20T01:19:11.705Z,40.67
2017-10-20T01:21:41.463Z,40.55
2017-10-20T01:24:11.272Z,40.42
2017-10-20T01:26:41.160Z,40.05
2017-10-20T01:29:10.883Z,37.95
2017-10-20T01:31:39.788Z,36.95
2017-10-20T01:34:09.802Z,38.42
2017-10-20T01:36:39.537Z,40.50
2017-10-20T01:39:07.931Z,40.00
2017-10-20T01:41:36.335Z,40.65
2017-10-20T01:44:04.790Z,41.65
2017-10-20T01:46:33.196Z,42.22
2017-10-20T01:49:01.569Z,43.22
2017-10-20T01:51:30.004Z,42.35
2017-10-20T01:53:59.156Z,41.25
2017-10-20T01:56:27.548Z,40.92
2017-10-20T01:58:56.680Z,39.33
2017-10-20T02:01:25.056Z,36.20
2017-10-20T02:03:53.668Z,37.33
2017-10-20T02:06:22.043Z,34.15
2017-10-20T02:08:50.454Z,31.45
2017-10-20T02:11:18.852Z,33.70
2017-10-20T02:13:47.246Z,34.83
2017-10-20T02:16:16.595Z,33.90
2017-10-20T02:18:45.534Z,39.13
2017-10-20T02:21:14.690Z,35.78
2017-10-20T02:23:43.087Z,39.53
2017-10-20T02:26:12.241Z,37.75
2017-10-20T02:28:40.704Z,39.20
2017-10-20T02:31:09.132Z,36.72
2017-10-20T02:33:37.508Z,37.95
2017-10-20T02:36:05.910Z,37.05
2017-10-20T02:38:34.288Z,37.97
2017-10-20T02:41:02.727Z,40.25
2017-10-20T02:43:31.107Z,38.42
2017-10-20T02:45:59.485Z,35.60
2017-10-20T02:48:27.888Z,32.78
2017-10-20T02:50:56.271Z,33.35
2017-10-20T02:53:24.702Z,26.77
2017-10-20T02:55:53.070Z,33.17
2017-10-20T02:58:21.452Z,31.87
2017-10-20T03:00:49.906Z,32.20
2017-10-20T03:03:19.065Z,32.25
2017-10-20T03:05:47.483Z,33.85
2017-10-20T03:08:17.172Z,29.87
2017-10-20T03:10:45.544Z,28.83
2017-10-20T03:13:13.960Z,30.75
2017-10-20T03:15:43.103Z,29.80
2017-10-20T03:18:11.720Z,30.12
2017-10-20T03:20:40.875Z,29.98
2017-10-20T03:23:09.261Z,30.25
2017-10-20T03:25:37.680Z,30.58
2017-10-20T03:28:06.840Z,29.92
2017-10-20T03:30:35.415Z,27.70
2017-10-20T03:33:03.799Z,29.20
2017-10-20T03:35:32.182Z,26.35
2017-10-20T03:38:00.586Z,27.85
2017-10-20T03:40:28.985Z,26.62
2017-10-20T03:42:58.159Z,28.80
2017-10-20T03:45:26.534Z,28.35
2017-10-20T03:47:54.913Z,29.12
2017-10-20T03:50:23.318Z,28.48
2017-10-20T03:52:52.473Z,28.67
2017-10-20T03:55:20.907Z,27.48
2017-10-20T03:57:49.297Z,26.37
2017-10-20T04:00:17.682Z,26.10
2017-10-20T04:02:46.072Z,33.67
2017-10-20T04:05:14.459Z,25.98
2017-10-20T04:07:43.254Z,25.45
2017-10-20T04:10:11.635Z,26.30
2017-10-20T04:12:40.016Z,26.85
2017-10-20T04:15:08.424Z,25.30
2017-10-20T04:17:37.567Z,26.00
2017-10-20T04:20:06.000Z,25.62
2017-10-20T04:22:35.143Z,30.60
2017-10-20T04:25:03.516Z,28.27
2017-10-20T04:27:31.927Z,28.75
2017-10-20T04:30:00.397Z,28.80
2017-10-20T04:32:28.834Z,30.42
2017-10-20T04:34:57.205Z,27.67
2017-10-20T04:37:25.591Z,28.87
2017-10-20T04:39:53.987Z,23.55
2017-10-20T04:42:22.375Z,24.42
2017-10-20T04:44:51.080Z,26.92
2017-10-20T04:47:19.448Z,24.95
2017-10-20T04:49:47.820Z,24.75
2017-10-20T04:52:16.216Z,24.75
2017-10-20T04:54:44.596Z,25.02
2017-10-20T04:57:13.061Z,24.75
2017-10-20T04:59:41.467Z,25.17
2017-10-20T05:02:09.847Z,27.13
2017-10-20T05:04:38.243Z,78.45
2017-10-20T05:07:07.388Z,27.35
2017-10-20T05:09:35.930Z,27.42
2017-10-20T05:12:05.070Z,24.92
2017-10-20T05:14:33.435Z,25.67
2017-10-20T05:17:01.829Z,25.48
2017-10-20T05:19:30.247Z,23.87
2017-10-20T05:21:58.992Z,24.23
2017-10-20T05:24:27.372Z,23.20
2017-10-20T05:26:55.745Z,24.17
2017-10-20T05:29:24.138Z,22.85
2017-10-20T05:31:52.511Z,23.05
2017-10-20T05:34:20.908Z,22.98
2017-10-20T05:36:49.292Z,24.30
2017-10-20T05:39:17.799Z,20.05
2017-10-20T05:41:46.932Z,24.73
2017-10-20T05:44:16.276Z,23.90
2017-10-20T05:46:44.674Z,20.23
2017-10-20T05:49:14.603Z,20.58
2017-10-20T05:51:43.024Z,22.40
2017-10-20T05:54:11.410Z,21.12
2017-10-20T05:56:39.780Z,18.80
2017-10-20T05:59:09.513Z,22.45
2017-10-20T06:01:37.888Z,23.30
2017-10-20T06:04:06.287Z,24.77
2017-10-20T06:06:35.432Z,24.12
2017-10-20T06:09:04.005Z,24.40
2017-10-20T06:11:32.374Z,22.37
2017-10-20T06:14:00.751Z,22.37
2017-10-20T06:16:29.148Z,23.60
2017-10-20T06:18:57.519Z,23.58
2017-10-20T06:21:26.217Z,21.70
2017-10-20T06:23:54.587Z,21.52
2017-10-20T06:26:22.959Z,23.52
2017-10-20T06:28:51.356Z,20.00
2017-10-20T06:31:19.733Z,20.25
2017-10-20T06:33:48.633Z,19.65
2017-10-20T06:36:17.000Z,16.45
2017-10-20T06:38:45.383Z,17.20
2017-10-20T06:41:17.894Z,20.10
2017-10-20T06:43:47.024Z,17.20
2017-10-20T06:46:15.840Z,16.75
2017-10-20T06:48:44.220Z,16.58
2017-10-20T06:51:12.597Z,15.30
2017-10-20T06:53:41.079Z,13.65
2017-10-20T06:56:09.617Z,14.05
2017-10-20T06:58:38.249Z,14.13
2017-10-20T07:01:06.635Z,14.10
2017-10-20T07:03:35.072Z,13.88
2017-10-20T07:06:03.774Z,14.60
2017-10-20T07:08:32.239Z,13.82
2017-10-20T07:11:00.671Z,13.95
2017-10-20T07:13:29.051Z,13.95
2017-10-20T07:15:57.447Z,12.75
2017-10-20T07:18:27.034Z,13.18
2017-10-20T07:20:55.465Z,12.15
2017-10-20T07:23:23.898Z,12.37
2017-10-20T07:25:53.045Z,12.27
2017-10-20T07:28:21.575Z,12.48
2017-10-20T07:30:50.000Z,12.13
2017-10-20T07:33:18.422Z,11.12
2017-10-20T07:35:46.989Z,13.73
2017-10-20T07:38:15.387Z,10.77
2017-10-20T07:40:43.776Z,12.63
2017-10-20T07:43:12.208Z,12.37
2017-10-20T07:45:40.608Z,10.50
2017-10-20T07:48:09.192Z,10.47
2017-10-20T07:50:37.578Z,10.00
2017-10-20T07:53:05.973Z,11.57
2017-10-20T07:55:36.399Z,11.60
2017-10-20T07:58:05.661Z,11.33
2017-10-20T08:00:34.347Z,11.67
2017-10-20T08:03:02.736Z,13.20
2017-10-20T08:05:31.130Z,12.10
2017-10-20T08:07:59.529Z,11.87
2017-10-20T08:10:29.476Z,16.20
2017-10-20T08:12:58.182Z,10.90
2017-10-20T08:15:26.563Z,11.80
2017-10-20T08:17:55.723Z,11.60
2017-10-20T08:20:24.888Z,12.07
2017-10-20T08:22:54.777Z,11.33
2017-10-20T08:25:23.195Z,10.90
2017-10-20T08:27:51.578Z,12.30
2017-10-20T08:30:20.731Z,11.10
2017-10-20T08:32:49.147Z,12.23
2017-10-20T08:35:17.523Z,9.97
2017-10-20T08:37:46.097Z,11.33
2017-10-20T08:40:14.484Z,10.93
2017-10-20T08:42:42.870Z,9.60
2017-10-20T08:45:11.283Z,9.80
2017-10-20T08:47:39.692Z,10.17
2017-10-20T08:50:08.264Z,8.37
2017-10-20T08:52:36.656Z,8.63
2017-10-20T08:55:05.091Z,7.93
2017-10-20T08:57:34.165Z,7.53
2017-10-20T09:00:02.567Z,8.60
2017-10-20T09:02:31.200Z,7.60
2017-10-20T09:04:59.579Z,7.53
2017-10-20T09:07:27.959Z,9.33
2017-10-20T09:09:56.363Z,7.80
2017-10-20T09:12:25.531Z,7.23
2017-10-20T09:14:54.307Z,8.57
2017-10-20T09:17:22.684Z,7.43
2017-10-20T09:19:51.075Z,7.50
2017-10-20T09:22:19.489Z,7.67
2017-10-20T09:24:48.635Z,7.60
2017-10-20T09:27:17.322Z,7.43
2017-10-20T09:29:45.708Z,8.30
2017-10-20T09:32:14.436Z,7.20
2017-10-20T09:34:44.355Z,8.23
2017-10-20T09:37:13.510Z,6.90
2017-10-20T09:39:41.931Z,8.80
2017-10-20T09:42:11.075Z,7.10
2017-10-20T09:44:39.952Z,7.30
2017-10-20T09:47:08.371Z,7.33
2017-10-20T09:49:36.747Z,7.70
2017-10-20T09:52:05.611Z,7.17
2017-10-20T09:54:34.000Z,7.60
2017-10-20T09:57:02.375Z,8.83
2017-10-20T09:59:30.787Z,9.03
2017-10-20T10:01:59.179Z,8.83
2017-10-20T10:04:28.380Z,8.13
2017-10-20T10:06:56.766Z,6.80
2017-10-20T10:09:25.147Z,7.83
2017-10-20T10:11:53.546Z,8.20
2017-10-20T10:14:21.939Z,7.97
2017-10-20T10:16:50.352Z,6.60
2017-10-20T10:19:18.736Z,7.80
2017-10-20T10:21:47.905Z,8.80
2017-10-20T10:24:16.312Z,7.30
2017-10-20T10:26:45.456Z,8.20
2017-10-20T10:29:13.883Z,7.40
2017-10-20T10:31:42.267Z,6.90
2017-10-20T10:34:10.732Z,7.77
2017-10-20T10:36:39.144Z,8.50
2017-10-20T10:39:08.301Z,7.07
2017-10-20T10:41:37.207Z,9.00
2017-10-20T10:44:05.619Z,6.80
2017-10-20T10:46:34.061Z,7.33
2017-10-20T10:49:02.504Z,7.60
2017-10-20T10:51:30.896Z,7.67
2017-10-20T10:53:59.672Z,7.90
2017-10-20T10:56:28.083Z,7.10
2017-10-20T10:58:56.765Z,6.70
2017-10-20T11:01:25.188Z,7.33
2017-10-20T11:03:54.011Z,7.27
2017-10-20T11:06:41.230Z,6.77
2017-10-20T11:09:22.634Z,5.97
2017-10-20T11:12:09.231Z,5.70
2017-10-20T11:14:39.462Z,4.67
2017-10-20T11:17:07.927Z,5.93
2017-10-20T11:19:39.395Z,5.50
2017-10-20T11:22:08.041Z,4.70
2017-10-20T11:24:38.067Z,3.57
2017-10-20T11:27:07.595Z,4.23
2017-10-20T11:29:36.023Z,5.20
2017-10-20T11:32:04.727Z,4.87
2017-10-20T11:34:34.096Z,4.77
2017-10-20T11:37:03.299Z,4.53
2017-10-20T11:39:32.443Z,4.57
2017-10-20T11:42:01.086Z,3.87
2017-10-20T11:44:29.888Z,4.27
2017-10-20T11:46:58.546Z,4.60
2017-10-20T11:49:27.289Z,4.17
2017-10-20T11:51:55.791Z,4.37
2017-10-20T11:54:24.456Z,4.23
2017-10-20T11:56:53.638Z,4.70
2017-10-20T11:59:22.013Z,4.00
2017-10-20T12:01:50.576Z,4.33
2017-10-20T12:04:18.967Z,4.70
2017-10-20T12:06:47.351Z,3.70
2017-10-20T12:09:15.760Z,4.27
2017-10-20T12:11:44.135Z,3.83
2017-10-20T12:14:12.643Z,4.00
2017-10-20T12:16:41.809Z,4.40
2017-10-20T12:19:10.943Z,4.00
2017-10-20T12:21:40.137Z,4.10
2017-10-20T12:24:09.289Z,4.20
2017-10-20T12:26:37.996Z,3.70
2017-10-20T12:29:06.388Z,3.27
2017-10-20T12:31:34.848Z,3.90
2017-10-20T12:34:03.261Z,3.53
2017-10-20T12:36:32.473Z,3.50
2017-10-20T12:39:00.988Z,3.30
2017-10-20T12:41:29.399Z,3.67
2017-10-20T12:43:57.772Z,3.30
2017-10-20T12:46:26.176Z,3.47
2017-10-20T12:48:55.431Z,4.00
2017-10-20T12:51:24.075Z,3.50
2017-10-20T12:53:52.482Z,4.40
2017-10-20T12:56:20.870Z,3.67
2017-10-20T12:58:49.300Z,4.07
2017-10-20T13:01:18.444Z,3.93
2017-10-20T13:03:47.335Z,3.43
2017-10-20T13:06:18.400Z,3.50
2017-10-20T13:08:47.040Z,3.90
2017-10-20T13:11:17.670Z,4.40
2017-10-20T13:13:46.049Z,2.93
2017-10-20T13:16:15.599Z,4.47
2017-10-20T13:18:44.003Z,4.13
2017-10-20T13:21:13.478Z,4.00
2017-10-20T13:23:41.866Z,5.07
2017-10-20T13:26:10.392Z,3.53
2017-10-20T13:28:38.834Z,3.80
2017-10-20T13:31:07.315Z,5.00
2017-10-20T13:33:35.925Z,4.17
2017-10-20T13:36:04.296Z,4.80
2017-10-20T13:38:33.453Z,6.70
2017-10-20T13:41:01.856Z,4.93
2017-10-20T13:43:30.274Z,4.00
2017-10-20T13:45:58.647Z,4.03
2017-10-20T13:48:27.109Z,4.30
2017-10-20T13:50:56.256Z,4.03
2017-10-20T13:53:24.641Z,4.20
2017-10-20T13:55:53.045Z,4.30
2017-10-20T13:58:21.423Z,4.37
2017-10-20T14:00:49.851Z,4.80
2017-10-20T14:03:18.239Z,4.40
2017-10-20T14:05:46.669Z,5.17
2017-10-20T14:08:15.837Z,3.73
2017-10-20T14:10:44.242Z,4.27
2017-10-20T14:13:13.411Z,4.73
2017-10-20T14:15:41.855Z,4.33
2017-10-20T14:18:10.263Z,4.90
2017-10-20T14:20:38.955Z,4.23
2017-10-20T14:23:07.340Z,4.10
2017-10-20T14:25:35.722Z,3.93
2017-10-20T14:28:04.429Z,4.07
2017-10-20T14:30:33.575Z,3.80
2017-10-20T14:33:02.270Z,5.13
2017-10-20T14:35:31.407Z,3.60
2017-10-20T14:37:59.829Z,4.37
2017-10-20T14:40:28.631Z,4.10
2017-10-20T14:42:57.353Z,3.90
2017-10-20T14:45:26.270Z,4.33
2017-10-20T14:47:54.702Z,4.23
2017-10-20T14:50:26.217Z,4.90
2017-10-20T14:52:55.301Z,3.87
2017-10-20T14:55:24.758Z,4.47
2017-10-20T14:57:53.781Z,3.87
2017-10-20T15:00:27.598Z,5.17
2017-10-20T15:02:59.473Z,5.03
2017-10-20T15:05:28.285Z,5.23
2017-10-20T15:07:57.169Z,4.20
2017-10-20T15:10:26.753Z,4.33
2017-10-20T15:12:55.184Z,4.20
2017-10-20T15:15:23.563Z,4.43
2017-10-20T15:17:56.983Z,4.17
2017-10-20T15:20:26.437Z,4.40
2017-10-20T15:22:54.824Z,5.83
2017-10-20T15:25:23.596Z,4.63
2017-10-20T15:27:52.321Z,5.10
2017-10-20T15:30:21.520Z,4.67
2017-10-20T15:32:51.223Z,4.20
2017-10-20T15:35:21.063Z,4.73
2017-10-20T15:37:50.232Z,5.00
2017-10-20T15:40:18.949Z,4.03
2017-10-20T15:42:47.440Z,5.07
2017-10-20T15:45:16.153Z,4.40
2017-10-20T15:47:44.669Z,4.13
2017-10-20T15:50:13.055Z,4.40
2017-10-20T15:52:41.455Z,4.60
2017-10-20T15:55:09.862Z,5.03
2017-10-20T15:57:38.274Z,4.93
2017-10-20T16:00:07.459Z,4.03
2017-10-20T16:02:35.850Z,4.53
2017-10-20T16:05:04.222Z,4.90
2017-10-20T16:07:32.683Z,6.60
2017-10-20T16:10:01.072Z,5.23
2017-10-20T16:12:30.814Z,5.10
2017-10-20T16:15:00.334Z,4.57
2017-10-20T16:17:29.653Z,5.27
2017-10-20T16:20:01.236Z,5.77
2017-10-20T16:22:32.003Z,5.90
2017-10-20T16:25:01.540Z,6.70
2017-10-20T16:27:30.795Z,7.00
2017-10-20T16:29:59.206Z,5.40
2017-10-20T16:32:27.634Z,5.93
2017-10-20T16:34:56.102Z,6.12
2017-10-20T16:37:24.666Z,4.87
2017-10-20T16:39:53.376Z,5.25
2017-10-20T16:42:21.772Z,5.78
2017-10-20T16:44:50.172Z,4.30
2017-10-20T16:47:18.840Z,5.12
2017-10-20T16:49:48.126Z,5.70
2017-10-20T16:52:19.886Z,5.50
2017-10-20T16:54:48.521Z,5.18
2017-10-20T16:57:17.622Z,5.90
2017-10-20T16:59:46.135Z,4.45
2017-10-20T17:02:14.546Z,6.05
2017-10-20T17:04:43.657Z,6.65
2017-10-20T17:07:12.822Z,5.53
2017-10-20T17:09:41.999Z,6.55
2017-10-20T17:12:10.421Z,8.98
2017-10-20T17:14:38.821Z,12.25
2017-10-20T17:17:08.129Z,8.20
2017-10-20T17:19:36.524Z,6.53
2017-10-20T17:22:04.905Z,8.50
2017-10-20T17:24:33.323Z,6.15
2017-10-20T17:27:01.722Z,6.53
2017-10-20T17:29:31.069Z,5.20
2017-10-20T17:31:59.508Z,5.40
2017-10-20T17:34:28.656Z,5.40
2017-10-20T17:36:57.293Z,5.45
2017-10-20T17:39:26.594Z,13.20
2017-10-20T17:41:55.036Z,17.40
2017-10-20T17:44:23.446Z,8.45
2017-10-20T17:46:51.910Z,8.23
2017-10-20T17:49:20.350Z,5.97
2017-10-20T17:51:48.753Z,6.55
2017-10-20T17:54:17.313Z,17.20
2017-10-20T17:56:45.775Z,7.00
2017-10-20T17:59:14.206Z,6.05
2017-10-20T18:01:43.749Z,7.47
2017-10-20T18:04:12.486Z,6.50
2017-10-20T18:06:41.012Z,7.40
2017-10-20T18:09:10.192Z,5.93
2017-10-20T18:11:39.355Z,6.18
2017-10-20T18:14:07.878Z,6.95
2017-10-20T18:16:37.155Z,6.35
2017-10-20T18:19:05.716Z,5.10
2017-10-20T18:21:34.370Z,5.25
2017-10-20T18:24:03.099Z,5.62
2017-10-20T18:26:32.161Z,6.22
2017-10-20T18:29:02.052Z,5.87
2017-10-20T18:31:30.930Z,5.12
2017-10-20T18:33:59.433Z,4.90
2017-10-20T18:36:27.919Z,5.35
2017-10-20T18:38:57.016Z,6.37
2017-10-20T18:41:26.038Z,6.37
2017-10-20T18:43:54.643Z,6.30
2017-10-20T18:46:25.047Z,6.07
2017-10-20T18:48:54.056Z,7.05
2017-10-20T18:51:25.754Z,6.37
2017-10-20T18:53:55.900Z,8.32
2017-10-20T18:56:25.010Z,6.35
2017-10-20T18:58:54.586Z,6.82
2017-10-20T19:01:23.404Z,6.10
2017-10-20T19:03:52.924Z,5.57
2017-10-20T19:06:23.294Z,7.20
2017-10-20T19:08:52.429Z,6.10
2017-10-20T19:11:22.274Z,6.65
2017-10-20T19:13:51.364Z,6.60
2017-10-20T19:16:20.134Z,6.85
2017-10-20T19:18:48.531Z,6.60
2017-10-20T19:21:18.202Z,6.70
2017-10-20T19:23:48.162Z,6.75
2017-10-20T19:26:17.404Z,6.85
2017-10-20T19:28:46.059Z,7.22
2017-10-20T19:31:14.496Z,6.80
2017-10-20T19:33:43.020Z,6.95
2017-10-20T19:36:11.652Z,7.22
2017-10-20T19:38:40.281Z,7.50
2017-10-20T19:41:12.261Z,7.50
2017-10-20T19:43:40.667Z,7.30
2017-10-20T19:46:10.392Z,6.40
2017-10-20T19:48:40.731Z,7.47
2017-10-20T19:51:09.360Z,7.45
2017-10-20T19:53:38.823Z,7.20
2017-10-20T19:56:08.216Z,8.07
2017-10-20T19:58:36.624Z,8.82
2017-10-20T20:01:05.575Z,8.10
2017-10-20T20:03:34.932Z,8.45
2017-10-20T20:06:04.538Z,8.48
2017-10-20T20:08:34.141Z,8.55
2017-10-20T20:11:02.926Z,9.13
2017-10-20T20:13:32.925Z,8.68
2017-10-20T20:16:03.323Z,8.20
2017-10-20T20:18:32.349Z,12.02
2017-10-20T20:21:01.547Z,8.85
2017-10-20T20:23:29.959Z,9.50
2017-10-20T20:25:58.405Z,9.27
2017-10-20T20:28:26.805Z,8.85
2017-10-20T20:30:56.172Z,9.82
2017-10-20T20:33:25.331Z,9.40
2017-10-20T20:35:53.724Z,9.30
2017-10-20T20:38:22.212Z,10.93
2017-10-20T20:40:50.590Z,10.23
2017-10-20T20:43:19.176Z,8.88
2017-10-20T20:45:47.572Z,9.80
2017-10-20T20:48:16.013Z,9.90
2017-10-20T20:50:44.446Z,9.90
2017-10-20T20:53:12.941Z,9.75
2017-10-20T20:55:42.091Z,11.02
2017-10-20T20:58:10.523Z,9.57
2017-10-20T21:00:39.697Z,9.60
2017-10-20T21:03:08.102Z,9.77
2017-10-20T21:05:36.508Z,10.73
2017-10-20T21:08:04.886Z,10.00
2017-10-20T21:10:33.409Z,9.05
2017-10-20T21:13:01.822Z,9.57
2017-10-20T21:15:30.548Z,12.25
2017-10-20T21:17:58.931Z,14.02
2017-10-20T21:20:27.387Z,10.98
2017-10-20T21:22:55.995Z,9.60
2017-10-20T21:25:24.373Z,9.70
2017-10-20T21:27:52.804Z,9.18
2017-10-20T21:30:21.981Z,9.65
2017-10-20T21:32:51.167Z,9.00
2017-10-20T21:35:19.607Z,9.20
2017-10-20T21:37:47.991Z,8.30
2017-10-20T21:40:16.580Z,9.50
2017-10-20T21:42:44.974Z,10.27
2017-10-20T21:45:13.357Z,9.80
2017-10-20T21:47:41.859Z,9.05
2017-10-20T21:50:11.024Z,8.60
2017-10-20T21:52:39.460Z,10.18
2017-10-20T21:55:07.848Z,9.20
2017-10-20T21:57:36.238Z,9.70
2017-10-20T22:00:04.651Z,9.52
2017-10-20T22:02:33.027Z,9.75
2017-10-20T22:05:01.480Z,8.98
2017-10-20T22:07:29.860Z,9.02
2017-10-20T22:09:58.234Z,9.45
2017-10-20T22:12:26.639Z,9.60
2017-10-20T22:14:55.100Z,10.73
2017-10-20T22:17:23.504Z,9.68
2017-10-20T22:19:51.885Z,10.00
2017-10-20T22:22:21.090Z,10.50
2017-10-20T22:24:49.935Z,9.57
2017-10-20T22:27:18.655Z,10.10
2017-10-20T22:29:47.046Z,9.32
2017-10-20T22:32:16.895Z,8.07
2017-10-20T22:34:45.295Z,9.70
2017-10-20T22:37:13.704Z,10.20
2017-10-20T22:39:42.134Z,9.80
2017-10-20T22:42:11.523Z,10.30
2017-10-20T22:44:41.081Z,8.52
2017-10-20T22:47:09.473Z,8.95
2017-10-20T22:49:37.844Z,9.38
2017-10-20T22:52:06.276Z,8.63
2017-10-20T22:54:34.707Z,9.30
2017-10-20T22:57:03.572Z,10.50
2017-10-20T22:59:32.060Z,9.18
2017-10-20T23:02:00.451Z,7.62
2017-10-20T23:04:28.865Z,9.93
2017-10-20T23:06:58.021Z,8.85
2017-10-20T23:09:26.698Z,7.60
2017-10-20T23:11:55.334Z,8.40
2017-10-20T23:14:24.582Z,7.78
2017-10-20T23:16:53.711Z,7.50
2017-10-20T23:19:22.095Z,7.25
2017-10-20T23:21:50.792Z,7.07
2017-10-20T23:24:19.939Z,8.20
2017-10-20T23:26:48.400Z,9.13
2017-10-20T23:29:16.803Z,8.95
2017-10-20T23:31:45.179Z,8.15
2017-10-20T23:34:13.585Z,9.02
2017-10-20T23:36:41.985Z,8.55
2017-10-20T23:39:11.335Z,8.00
2017-10-20T23:41:39.715Z,9.65
2017-10-20T23:44:08.099Z,8.85
2017-10-20T23:46:36.500Z,9.98
2017-10-20T23:49:04.904Z,10.25
2017-10-20T23:51:34.105Z,9.18
2017-10-20T23:54:03.262Z,9.55
2017-10-20T23:56:31.639Z,9.55
2017-10-20T23:59:00.050Z,8.57
